Geneina Airport


Codes: HSGN/EGN
Name: Geneina Airport
City: Geneina
Country: Sudan
Elevation: 2650 ft.
Wikipedia:

Photos at Geneina Airport


   Photos courtesy of SpottingLog. You can add your own sightings and photos by signing up for a free trial today.



No photos found.

Weather at Geneina Airport


Time (UTC)DescriptionTempratureWindCloud coverageVisibilityPressureHumidity
16-Jun-2024 12:00Broken Clouds35°C9 mph, N63%10000m1009hPa27%
16-Jun-2024 15:00Broken Clouds37°C9 mph, N83%10000m1006hPa19%
16-Jun-2024 18:00Overcast Clouds32°C11 mph, W96%10000m1008hPa32%
16-Jun-2024 21:00Broken Clouds28°C13 mph, W71%10000m1009hPa42%
17-Jun-2024 00:00Broken Clouds27°C4 mph, SW72%10000m1009hPa44%
17-Jun-2024 03:00Broken Clouds26°C7 mph, SW68%10000m1010hPa47%
17-Jun-2024 06:00Broken Clouds28°C11 mph, SW71%10000m1012hPa45%
17-Jun-2024 09:00Broken Clouds33°C13 mph, SW76%10000m1011hPa33%
17-Jun-2024 12:00Broken Clouds36°C11 mph, W74%10000m1008hPa26%
17-Jun-2024 15:00Broken Clouds36°C9 mph, NW76%10000m1007hPa22%
17-Jun-2024 18:00Broken Clouds31°C16 mph, S80%10000m1008hPa36%
17-Jun-2024 21:00Overcast Clouds27°C11 mph, SW100%10000m1010hPa51%
18-Jun-2024 00:00Overcast Clouds27°C13 mph, S100%10000m1010hPa51%
18-Jun-2024 03:00Overcast Clouds26°C9 mph, SW100%10000m1010hPa55%
18-Jun-2024 06:00Overcast Clouds27°C9 mph, SW99%10000m1012hPa53%
18-Jun-2024 09:00Overcast Clouds32°C11 mph, SW95%10000m1012hPa37%
18-Jun-2024 12:00Overcast Clouds35°C9 mph, W94%10000m1010hPa29%
18-Jun-2024 15:00Scattered Clouds36°C11 mph, NW40%10000m1007hPa25%
18-Jun-2024 18:00Moderate Rain24°C18 mph, W71%10000m1010hPa61%
18-Jun-2024 21:00Light Rain25°C9 mph, W100%10000m1010hPa54%
19-Jun-2024 00:00Overcast Clouds25°C11 mph, W100%10000m1010hPa58%
19-Jun-2024 03:00Overcast Clouds24°C7 mph, S100%10000m1011hPa61%
19-Jun-2024 06:00Overcast Clouds25°C7 mph, SW100%10000m1012hPa64%
19-Jun-2024 09:00Overcast Clouds30°C9 mph, SW100%10000m1012hPa45%
19-Jun-2024 12:00Overcast Clouds33°C7 mph, NW100%10000m1009hPa34%
19-Jun-2024 15:00Few Clouds34°C13 mph, W14%10000m1007hPa31%
19-Jun-2024 18:00Light Rain33°C9 mph, SW36%10000m1009hPa36%
19-Jun-2024 21:00Light Rain28°C18 mph, S100%10000m1012hPa52%
20-Jun-2024 00:00Overcast Clouds27°C7 mph, W98%10000m1009hPa51%
20-Jun-2024 03:00Broken Clouds27°C2 mph, W84%10000m1009hPa52%
20-Jun-2024 06:00Scattered Clouds29°C4 mph, S50%10000m1011hPa45%
20-Jun-2024 09:00Few Clouds33°C9 mph, W22%10000m1011hPa34%
20-Jun-2024 12:00Scattered Clouds37°C9 mph, NW28%10000m1008hPa25%
20-Jun-2024 15:00Light Rain31°C27 mph, SE37%4765m1009hPa37%
20-Jun-2024 18:00Light Rain28°C11 mph, W69%10000m1010hPa43%
20-Jun-2024 21:00Overcast Clouds27°C7 mph, SW100%10000m1011hPa55%
21-Jun-2024 00:00Overcast Clouds27°C4 mph, SW97%10000m1010hPa54%
21-Jun-2024 03:00Scattered Clouds26°C2 mph, SE44%10000m1010hPa52%
21-Jun-2024 06:00Scattered Clouds29°C4 mph, S48%10000m1011hPa41%
21-Jun-2024 09:00Few Clouds34°C7 mph, SW12%10000m1011hPa29%